createdAt,value
2022-07-30T00:07:06.811Z,5.78
2022-07-30T00:17:10.189Z,4.78
2022-07-30T00:27:12.428Z,5.55
2022-07-30T00:37:14.945Z,4.90
2022-07-30T00:47:17.126Z,5.43
2022-07-30T00:57:19.465Z,5.60
2022-07-30T01:07:20.786Z,4.53
2022-07-30T01:17:25.288Z,3.58
2022-07-30T01:38:57.931Z,4.72
2022-07-30T01:49:01.254Z,7.97
2022-07-30T01:59:07.394Z,7.45
2022-07-30T02:09:11.591Z,7.10
2022-07-30T02:19:19.470Z,4.85
2022-07-30T02:29:25.456Z,6.23
2022-07-30T02:39:29.508Z,8.07
2022-07-30T02:49:32.130Z,4.35
2022-07-30T02:59:36.214Z,7.90
2022-07-30T03:09:51.421Z,5.13
2022-07-30T03:19:58.173Z,4.25
2022-07-30T03:30:06.115Z,4.35
2022-07-30T03:40:09.694Z,6.28
2022-07-30T03:50:14.437Z,5.28
2022-07-30T04:00:19.286Z,6.20
2022-07-30T04:10:26.932Z,6.20
2022-07-30T04:20:56.872Z,5.30
2022-07-30T04:31:04.809Z,6.38
2022-07-30T04:41:11.611Z,6.78
2022-07-30T04:51:40.393Z,7.15
2022-07-30T05:01:50.937Z,12.67
2022-07-30T05:11:57.515Z,10.52
2022-07-30T05:22:01.466Z,9.40
2022-07-30T05:32:09.674Z,9.40
2022-07-30T05:42:12.552Z,11.48
2022-07-30T05:52:22.093Z,13.05
2022-07-30T06:02:28.775Z,15.05
2022-07-30T06:12:50.772Z,10.32
2022-07-30T06:22:54.094Z,11.20
2022-07-30T06:33:08.736Z,9.60
2022-07-30T06:43:10.933Z,12.63
2022-07-30T06:53:31.689Z,9.63
2022-07-30T07:15:18.726Z,11.85
2022-07-30T07:25:23.690Z,9.00
2022-07-30T07:35:26.347Z,13.23
2022-07-30T07:45:28.309Z,8.75
2022-07-30T07:55:42.770Z,11.98
2022-07-30T08:06:02.005Z,10.48
2022-07-30T08:16:30.128Z,7.70
2022-07-30T08:26:51.369Z,10.32
2022-07-30T08:36:53.531Z,9.18
2022-07-30T08:46:59.359Z,10.27
2022-07-30T08:57:17.647Z,13.80
2022-07-30T09:07:19.247Z,14.63
2022-07-30T09:17:21.753Z,7.60
2022-07-30T09:27:23.552Z,5.20
2022-07-30T09:38:06.750Z,6.10
2022-07-30T09:48:29.154Z,8.90
2022-07-30T09:58:45.624Z,8.82
2022-07-30T10:08:49.495Z,5.63
2022-07-30T10:18:51.955Z,4.25
2022-07-30T10:29:13.129Z,6.85
2022-07-30T10:39:24.853Z,2.83
2022-07-30T10:49:28.619Z,5.03
2022-07-30T11:00:04.417Z,2.75
2022-07-30T11:10:09.603Z,6.43
2022-07-30T11:20:14.928Z,3.95
2022-07-30T11:30:20.814Z,3.45
2022-07-30T11:40:27.617Z,3.30
2022-07-30T11:50:35.937Z,1.30
2022-07-30T12:00:50.095Z,1.88
2022-07-30T12:11:06.237Z,3.35
2022-07-30T12:21:18.475Z,2.85
2022-07-30T12:31:21.996Z,1.30
2022-07-30T12:41:25.433Z,2.88
2022-07-30T12:51:31.694Z,4.40
2022-07-30T13:01:50.529Z,3.47
2022-07-30T13:11:53.095Z,4.50
2022-07-30T13:21:54.433Z,1.48
2022-07-30T13:31:57.275Z,2.15
2022-07-30T13:41:59.378Z,2.30
2022-07-30T13:52:01.478Z,3.70
2022-07-30T14:02:05.804Z,3.00
2022-07-30T14:12:08.518Z,3.03
2022-07-30T14:22:10.457Z,1.15
2022-07-30T14:32:12.155Z,1.52
2022-07-30T14:42:14.376Z,2.70
2022-07-30T14:52:16.939Z,1.20
2022-07-30T15:02:21.138Z,2.20
2022-07-30T15:12:26.896Z,4.03
2022-07-30T15:22:30.559Z,1.95
2022-07-30T15:32:32.896Z,2.55
2022-07-30T15:42:34.677Z,8.63
2022-07-30T15:52:38.812Z,3.88
2022-07-30T16:02:42.596Z,2.60
2022-07-30T16:12:45.533Z,4.63
2022-07-30T16:22:48.717Z,4.72
2022-07-30T16:32:51.457Z,4.50
2022-07-30T16:42:53.358Z,1.20
2022-07-30T16:52:55.717Z,3.08
2022-07-30T17:02:57.958Z,5.82
2022-07-30T17:13:00.099Z,3.00
2022-07-30T17:23:03.292Z,6.28
2022-07-30T17:33:09.711Z,2.20
2022-07-30T17:43:13.657Z,4.07
2022-07-30T17:53:16.395Z,1.83
2022-07-30T18:03:18.513Z,3.10
2022-07-30T18:13:26.573Z,3.17
2022-07-30T18:23:34.812Z,2.28
2022-07-30T18:33:37.680Z,4.00
2022-07-30T18:43:48.161Z,2.58
2022-07-30T18:53:56.376Z,2.58
2022-07-30T19:03:58.107Z,3.30
2022-07-30T19:13:59.835Z,2.85
2022-07-30T19:24:01.695Z,2.10
2022-07-30T19:34:03.497Z,2.58
2022-07-30T19:44:06.018Z,2.38
2022-07-30T19:54:12.219Z,3.63
2022-07-30T20:04:16.759Z,4.32
2022-07-30T20:14:18.935Z,2.35
2022-07-30T20:24:21.165Z,2.17
2022-07-30T20:34:26.187Z,3.55
2022-07-30T20:44:29.553Z,4.53
2022-07-30T20:54:33.034Z,5.22
2022-07-30T21:04:35.212Z,2.17
2022-07-30T21:14:38.118Z,2.58
2022-07-30T21:24:39.853Z,3.25
2022-07-30T21:34:42.323Z,3.88
2022-07-30T21:44:45.136Z,3.15
2022-07-30T21:54:52.516Z,3.78
2022-07-30T22:04:55.815Z,3.90
2022-07-30T22:14:58.836Z,3.53
2022-07-30T22:25:03.094Z,3.60
2022-07-30T22:35:20.725Z,5.53
2022-07-30T22:45:49.236Z,2.38
2022-07-30T22:55:54.682Z,3.15
2022-07-30T23:05:57.234Z,4.43
2022-07-30T23:16:01.075Z,3.13
2022-07-30T23:26:05.878Z,4.50
2022-07-30T23:36:11.870Z,2.63
2022-07-30T23:46:16.312Z,4.22
2022-07-30T23:56:20.250Z,3.70
